createdAt,value
2019-03-12T00:01:49.140Z,2.20
2019-03-12T00:04:38.416Z,2.30
2019-03-12T00:07:27.250Z,2.30
2019-03-12T00:10:16.761Z,2.30
2019-03-12T00:13:05.835Z,2.30
2019-03-12T00:15:54.964Z,2.30
2019-03-12T00:18:43.927Z,2.30
2019-03-12T00:21:33.005Z,2.20
2019-03-12T00:24:22.304Z,2.20
2019-03-12T00:27:11.544Z,2.20
2019-03-12T00:30:00.512Z,2.20
2019-03-12T00:32:49.882Z,2.20
2019-03-12T00:35:38.548Z,2.10
2019-03-12T00:38:27.918Z,2.20
2019-03-12T00:41:19.970Z,2.10
2019-03-12T00:44:08.090Z,2.10
2019-03-12T00:46:57.203Z,2.00
2019-03-12T00:49:45.911Z,2.00
2019-03-12T00:52:35.433Z,2.00
2019-03-12T00:55:24.466Z,2.00
2019-03-12T00:58:13.328Z,2.00
2019-03-12T01:01:02.372Z,2.00
2019-03-12T01:03:51.805Z,1.90
2019-03-12T01:06:41.610Z,2.00
2019-03-12T01:09:30.390Z,2.00
2019-03-12T01:12:19.466Z,2.10
2019-03-12T01:15:11.801Z,2.20
2019-03-12T01:18:00.960Z,2.30
2019-03-12T01:20:49.747Z,2.30
2019-03-12T01:23:39.373Z,2.20
2019-03-12T01:26:29.067Z,2.20
2019-03-12T01:29:18.360Z,2.20
2019-03-12T01:32:07.709Z,2.20
2019-03-12T01:34:57.077Z,2.20
2019-03-12T01:37:46.787Z,2.30
2019-03-12T01:40:35.527Z,2.40
2019-03-12T01:43:25.194Z,2.50
2019-03-12T01:46:13.951Z,2.60
2019-03-12T01:49:03.315Z,2.60
2019-03-12T01:51:51.995Z,2.50
2019-03-12T01:54:41.229Z,2.50
2019-03-12T01:57:29.787Z,2.40
2019-03-12T02:00:21.030Z,2.50
2019-03-12T02:03:10.263Z,2.50
2019-03-12T02:06:00.071Z,2.50
2019-03-12T02:08:50.034Z,2.70
2019-03-12T02:11:39.327Z,2.60
2019-03-12T02:14:29.354Z,2.60
2019-03-12T02:17:18.582Z,2.70
2019-03-12T02:20:14.735Z,2.60
2019-03-12T02:23:03.979Z,2.60
2019-03-12T02:25:52.494Z,2.60
2019-03-12T02:28:42.316Z,2.50
2019-03-12T02:31:31.460Z,2.50
2019-03-12T02:34:23.362Z,2.50
2019-03-12T02:37:12.852Z,2.50
2019-03-12T02:40:01.957Z,2.60
2019-03-12T02:42:51.200Z,2.60
2019-03-12T02:45:40.289Z,2.50
2019-03-12T02:48:29.538Z,2.50
2019-03-12T02:51:18.830Z,2.50
2019-03-12T02:54:07.660Z,2.50
2019-03-12T02:56:57.158Z,2.50
2019-03-12T02:59:46.174Z,2.40
2019-03-12T03:02:35.606Z,2.40
2019-03-12T03:05:24.890Z,2.30
2019-03-12T03:08:15.567Z,2.30
2019-03-12T03:11:04.233Z,2.30
2019-03-12T03:13:53.499Z,2.40
2019-03-12T03:16:42.703Z,2.60
2019-03-12T03:19:31.417Z,2.70
2019-03-12T03:22:20.649Z,2.80
2019-03-12T03:25:10.785Z,2.90
2019-03-12T03:28:00.137Z,2.90
2019-03-12T03:30:49.490Z,2.90
2019-03-12T03:33:39.186Z,3.00
2019-03-12T03:36:28.464Z,3.00
2019-03-12T03:39:17.611Z,2.90
2019-03-12T03:42:07.414Z,2.90
2019-03-12T03:44:56.728Z,2.80
2019-03-12T03:47:46.364Z,2.80
2019-03-12T03:50:35.700Z,2.80
2019-03-12T03:53:25.387Z,2.80
2019-03-12T03:56:14.463Z,2.80
2019-03-12T03:59:03.445Z,2.80
2019-03-12T04:01:52.203Z,2.80
2019-03-12T04:04:41.478Z,2.70
2019-03-12T04:07:30.511Z,2.80
2019-03-12T04:10:19.704Z,2.80
2019-03-12T04:13:08.731Z,2.80
2019-03-12T04:15:58.242Z,2.80
2019-03-12T04:18:47.830Z,2.80
2019-03-12T04:21:36.978Z,2.80
2019-03-12T04:24:26.533Z,2.80
2019-03-12T04:27:15.940Z,2.70
2019-03-12T04:30:15.134Z,2.80
2019-03-12T04:33:04.799Z,2.80
2019-03-12T04:35:53.987Z,2.80
2019-03-12T04:38:43.195Z,2.80
2019-03-12T04:41:32.520Z,2.80
2019-03-12T04:44:22.213Z,2.80
2019-03-12T04:47:10.845Z,2.80
2019-03-12T04:50:00.243Z,2.80
2019-03-12T04:52:49.346Z,2.90
2019-03-12T04:55:38.663Z,2.90
2019-03-12T04:58:27.940Z,3.00
2019-03-12T05:01:17.401Z,3.00
2019-03-12T05:04:07.117Z,3.00
2019-03-12T05:06:56.619Z,3.00
2019-03-12T05:09:45.680Z,3.00
2019-03-12T05:12:35.295Z,3.00
2019-03-12T05:15:23.788Z,3.00
2019-03-12T05:18:12.619Z,2.90
2019-03-12T05:21:01.023Z,2.90
2019-03-12T05:23:50.021Z,2.80
2019-03-12T05:26:39.358Z,2.70
2019-03-12T05:29:28.868Z,2.70
2019-03-12T05:32:18.243Z,2.60
2019-03-12T05:35:07.723Z,2.60
2019-03-12T05:37:57.092Z,2.60
2019-03-12T05:40:46.176Z,2.60
2019-03-12T05:43:35.085Z,2.60
2019-03-12T05:46:24.229Z,2.70
2019-03-12T05:49:13.255Z,2.70
2019-03-12T05:52:02.317Z,2.60
2019-03-12T05:54:51.525Z,2.70
2019-03-12T05:57:40.373Z,2.70
2019-03-12T06:00:29.501Z,2.80
2019-03-12T06:03:18.447Z,2.80
2019-03-12T06:06:08.145Z,2.90
2019-03-12T06:08:57.342Z,3.00
2019-03-12T06:11:46.480Z,3.10
2019-03-12T06:14:35.541Z,3.30
2019-03-12T06:17:25.253Z,3.30
2019-03-12T06:20:16.448Z,3.40
2019-03-12T06:23:05.604Z,3.60
2019-03-12T06:25:55.002Z,3.70
2019-03-12T06:28:44.346Z,3.70
2019-03-12T06:31:34.728Z,3.70
2019-03-12T06:34:25.552Z,3.70
2019-03-12T06:37:28.649Z,3.70
2019-03-12T06:40:19.215Z,3.70
2019-03-12T06:43:15.881Z,3.70
2019-03-12T06:46:11.175Z,3.70
2019-03-12T06:49:07.446Z,3.70
2019-03-12T06:51:58.322Z,3.70
2019-03-12T06:54:48.704Z,3.70
2019-03-12T06:57:46.488Z,3.80
2019-03-12T07:00:46.112Z,3.80
2019-03-12T07:03:36.801Z,3.90
2019-03-12T07:06:30.170Z,3.90
2019-03-12T07:09:37.022Z,4.00
2019-03-12T07:12:29.706Z,4.00
2019-03-12T07:15:28.804Z,4.00
2019-03-12T07:18:17.667Z,4.10
2019-03-12T07:21:14.273Z,4.10
2019-03-12T07:24:21.210Z,4.20
2019-03-12T07:27:28.968Z,4.30
2019-03-12T07:30:19.195Z,4.50
2019-03-12T07:33:09.657Z,4.60
2019-03-12T07:36:02.564Z,4.70
2019-03-12T07:38:56.285Z,4.70
2019-03-12T07:41:52.284Z,4.70
2019-03-12T07:44:58.297Z,4.80
2019-03-12T07:47:55.372Z,4.90
2019-03-12T07:50:59.574Z,4.90
2019-03-12T07:54:05.955Z,5.00
2019-03-12T07:57:13.073Z,5.20
2019-03-12T08:00:10.149Z,5.30
2019-03-12T08:03:06.523Z,5.50
2019-03-12T08:06:06.833Z,5.60
2019-03-12T08:09:13.742Z,5.80
2019-03-12T08:12:10.087Z,6.10
2019-03-12T08:15:22.332Z,6.10
2019-03-12T08:18:09.737Z,6.30
2019-03-12T08:21:03.581Z,6.50
2019-03-12T08:23:54.943Z,6.60
2019-03-12T08:26:48.634Z,6.70
2019-03-12T08:29:39.736Z,6.90
2019-03-12T08:32:30.589Z,7.00
2019-03-12T08:35:23.028Z,7.00
2019-03-12T08:38:18.966Z,7.30
2019-03-12T08:41:17.552Z,7.30
2019-03-12T08:44:06.991Z,7.20
2019-03-12T08:47:03.018Z,7.30
2019-03-12T08:49:53.027Z,7.30
2019-03-12T08:52:58.495Z,7.60
2019-03-12T08:55:50.303Z,7.60
2019-03-12T08:58:42.176Z,7.70
2019-03-12T09:01:37.561Z,7.90
2019-03-12T09:04:27.030Z,7.70
2019-03-12T09:07:22.707Z,7.80
2019-03-12T09:10:18.881Z,7.70
2019-03-12T09:13:08.962Z,7.70
2019-03-12T09:16:04.646Z,7.40
2019-03-12T09:19:06.728Z,7.40
2019-03-12T09:21:59.316Z,7.60
2019-03-12T09:24:55.525Z,7.70
2019-03-12T09:28:09.702Z,7.70
2019-03-12T09:31:05.735Z,7.80
2019-03-12T09:34:01.672Z,7.80
2019-03-12T09:36:51.496Z,7.70
2019-03-12T09:39:57.577Z,7.90
2019-03-12T09:45:48.093Z,8.00
2019-03-12T09:48:38.730Z,7.90
2019-03-12T09:51:28.764Z,8.00
2019-03-12T09:54:18.322Z,8.10
2019-03-12T09:57:13.962Z,8.10
2019-03-12T10:00:16.352Z,8.00
2019-03-12T10:03:03.769Z,7.70
2019-03-12T10:05:53.919Z,7.70
2019-03-12T10:08:43.892Z,7.70
2019-03-12T10:11:36.870Z,7.90
2019-03-12T10:14:32.769Z,8.00
2019-03-12T10:17:40.415Z,8.20
2019-03-12T10:20:35.728Z,8.10
2019-03-12T10:23:33.989Z,8.30
2019-03-12T10:26:40.154Z,8.20
2019-03-12T10:29:29.656Z,7.80
2019-03-12T10:32:19.834Z,7.80
2019-03-12T10:35:10.081Z,7.90
2019-03-12T10:38:19.589Z,7.80
2019-03-12T10:41:11.921Z,7.70
2019-03-12T10:44:02.051Z,7.70
2019-03-12T10:46:58.385Z,7.80
2019-03-12T10:49:46.250Z,7.90
2019-03-12T10:52:34.814Z,7.90
2019-03-12T10:55:23.205Z,7.90
2019-03-12T10:58:11.991Z,7.90
2019-03-12T11:01:00.356Z,8.20
2019-03-12T11:03:48.716Z,8.40
2019-03-12T11:06:37.151Z,8.20
2019-03-12T11:09:24.782Z,8.10
2019-03-12T11:12:12.907Z,8.00
2019-03-12T11:15:01.311Z,7.90
2019-03-12T11:17:50.575Z,7.70
2019-03-12T11:20:38.578Z,7.60
2019-03-12T11:23:26.909Z,7.40
2019-03-12T11:26:15.609Z,7.30
2019-03-12T11:29:04.599Z,7.20
2019-03-12T11:31:53.659Z,7.20
2019-03-12T11:34:43.274Z,7.20
2019-03-12T11:37:32.005Z,7.10
2019-03-12T11:40:25.397Z,7.10
2019-03-12T11:43:15.392Z,7.00
2019-03-12T11:46:05.165Z,6.90
2019-03-12T11:48:55.450Z,6.90
2019-03-12T11:51:43.329Z,7.00
2019-03-12T11:54:32.669Z,7.20
2019-03-12T11:57:20.404Z,7.40
2019-03-12T12:00:12.072Z,7.50
2019-03-12T12:03:00.778Z,7.50
2019-03-12T12:05:48.922Z,7.60
2019-03-12T12:08:37.291Z,7.60
2019-03-12T12:11:26.024Z,7.60
2019-03-12T12:14:14.381Z,7.60
2019-03-12T12:17:03.853Z,7.80
2019-03-12T12:19:51.422Z,8.10
2019-03-12T12:22:40.034Z,8.20
2019-03-12T12:25:28.479Z,8.20
2019-03-12T12:28:16.841Z,8.20
2019-03-12T12:31:04.956Z,8.20
2019-03-12T12:33:53.443Z,8.10
2019-03-12T12:36:41.762Z,8.10
2019-03-12T12:39:30.533Z,8.10
2019-03-12T12:42:18.688Z,8.20
2019-03-12T12:45:12.577Z,8.10
2019-03-12T12:48:01.146Z,8.10
2019-03-12T12:51:02.587Z,8.10
2019-03-12T12:53:39.776Z,8.20
2019-03-12T12:56:27.781Z,8.20
2019-03-12T12:59:16.055Z,8.20
2019-03-12T13:02:04.889Z,8.20
2019-03-12T13:04:52.997Z,8.20
2019-03-12T13:07:41.893Z,8.10
2019-03-12T13:10:34.707Z,8.00
2019-03-12T13:13:23.193Z,8.00
2019-03-12T13:16:24.078Z,8.00
2019-03-12T13:19:00.646Z,8.00
2019-03-12T13:21:48.835Z,8.00
2019-03-12T13:24:36.993Z,8.00
2019-03-12T13:27:24.932Z,8.10
2019-03-12T13:30:21.217Z,8.20
2019-03-12T13:33:09.312Z,8.20
2019-03-12T13:35:57.617Z,8.20
2019-03-12T13:38:47.955Z,8.20
2019-03-12T13:41:36.082Z,8.20
2019-03-12T13:44:24.649Z,8.20
2019-03-12T13:47:12.333Z,8.30
2019-03-12T13:50:01.679Z,8.30
2019-03-12T13:52:50.878Z,8.30
2019-03-12T13:55:39.168Z,8.30
2019-03-12T13:58:27.802Z,8.30
2019-03-12T14:01:16.065Z,8.20
2019-03-12T14:04:10.599Z,8.40
2019-03-12T14:06:53.991Z,8.40
2019-03-12T14:09:42.377Z,8.50
2019-03-12T14:12:31.042Z,8.40
2019-03-12T14:15:22.214Z,8.40
2019-03-12T14:18:10.769Z,8.40
2019-03-12T14:21:06.075Z,8.30
2019-03-12T14:23:59.939Z,8.30
2019-03-12T14:26:50.664Z,8.40
2019-03-12T14:29:39.203Z,8.40
2019-03-12T14:32:27.522Z,8.40
2019-03-12T14:35:15.693Z,8.30
2019-03-12T14:38:04.457Z,8.30
2019-03-12T14:40:52.967Z,8.40
2019-03-12T14:43:41.357Z,8.40
2019-03-12T14:46:29.299Z,8.30
2019-03-12T14:49:17.544Z,8.40
2019-03-12T14:52:08.760Z,8.40
2019-03-12T14:54:57.097Z,8.40
2019-03-12T14:57:45.535Z,8.50
2019-03-12T15:00:33.890Z,8.40
2019-03-12T15:03:22.353Z,8.40
2019-03-12T15:06:10.823Z,8.40
2019-03-12T15:08:59.457Z,8.30
2019-03-12T15:11:47.625Z,8.30
2019-03-12T15:14:36.169Z,8.40
2019-03-12T15:17:24.183Z,8.40
2019-03-12T15:20:14.072Z,8.40
2019-03-12T15:23:01.690Z,8.40
2019-03-12T15:25:49.945Z,8.40
2019-03-12T15:28:37.618Z,8.40
2019-03-12T15:31:26.305Z,8.40
2019-03-12T15:34:14.647Z,8.30
2019-03-12T15:37:03.136Z,8.20
2019-03-12T15:39:51.238Z,8.20
2019-03-12T15:42:39.939Z,8.10
2019-03-12T15:45:28.104Z,8.10
2019-03-12T15:48:16.626Z,8.10
2019-03-12T15:51:05.013Z,8.20
2019-03-12T15:53:53.445Z,8.20
2019-03-12T15:56:41.671Z,8.10
2019-03-12T15:59:30.132Z,8.10
2019-03-12T16:02:17.795Z,8.10
2019-03-12T16:05:08.123Z,8.10
2019-03-12T16:07:56.201Z,8.10
2019-03-12T16:10:56.837Z,8.10
2019-03-12T16:13:35.034Z,8.10
2019-03-12T16:16:22.661Z,8.20
2019-03-12T16:19:11.128Z,8.10
2019-03-12T16:21:59.222Z,8.10
2019-03-12T16:24:47.719Z,8.20
2019-03-12T16:27:36.080Z,8.10
2019-03-12T16:30:24.625Z,8.10
2019-03-12T16:33:12.566Z,8.10
2019-03-12T16:36:00.905Z,8.10
2019-03-12T16:38:49.243Z,8.10
2019-03-12T16:41:37.709Z,8.10
2019-03-12T16:44:26.453Z,8.10
2019-03-12T16:47:14.271Z,8.10
2019-03-12T16:50:02.655Z,8.10
2019-03-12T16:52:50.265Z,8.00
2019-03-12T16:55:38.304Z,8.00
2019-03-12T16:58:26.073Z,8.10
2019-03-12T17:01:14.492Z,8.10
2019-03-12T17:04:02.830Z,8.10
2019-03-12T17:06:51.231Z,8.00
2019-03-12T17:09:39.664Z,8.00
2019-03-12T17:12:27.952Z,8.00
2019-03-12T17:15:27.700Z,8.00
2019-03-12T17:18:16.099Z,8.00
2019-03-12T17:21:07.261Z,8.00
2019-03-12T17:23:55.004Z,8.00
2019-03-12T17:26:43.238Z,8.00
2019-03-12T17:29:31.799Z,8.00
2019-03-12T17:32:19.945Z,8.00
2019-03-12T17:35:11.467Z,8.00
2019-03-12T17:38:00.110Z,8.00
2019-03-12T17:40:48.258Z,7.90
2019-03-12T17:43:36.433Z,7.90
2019-03-12T17:46:24.911Z,7.90
2019-03-12T17:49:13.256Z,7.90
2019-03-12T17:52:02.057Z,7.90
2019-03-12T17:54:50.462Z,7.80
2019-03-12T17:57:39.067Z,7.80
2019-03-12T18:00:29.269Z,7.80
2019-03-12T18:03:17.004Z,7.70
2019-03-12T18:06:05.716Z,7.80
2019-03-12T18:08:54.073Z,7.70
2019-03-12T18:11:42.365Z,7.70
2019-03-12T18:14:31.129Z,7.70
2019-03-12T18:17:21.251Z,7.80
2019-03-12T18:20:13.293Z,7.70
2019-03-12T18:23:01.669Z,7.70
2019-03-12T18:25:51.250Z,7.80
2019-03-12T18:28:39.488Z,7.80
2019-03-12T18:31:27.981Z,7.80
2019-03-12T18:34:16.390Z,7.80
2019-03-12T18:37:04.913Z,7.80
2019-03-12T18:39:53.623Z,7.80
2019-03-12T18:42:41.835Z,7.70
2019-03-12T18:45:38.147Z,7.70
2019-03-12T18:48:26.224Z,7.70
2019-03-12T18:51:14.470Z,7.70
2019-03-12T18:54:02.621Z,7.70
2019-03-12T18:56:50.858Z,7.70
2019-03-12T18:59:39.170Z,7.70
2019-03-12T19:02:27.851Z,7.70
2019-03-12T19:05:16.028Z,7.70
2019-03-12T19:08:04.792Z,7.70
2019-03-12T19:10:52.767Z,7.60
2019-03-12T19:13:40.632Z,7.60
2019-03-12T19:16:28.976Z,7.60
2019-03-12T19:19:17.391Z,7.60
2019-03-12T19:22:05.380Z,7.60
2019-03-12T19:24:53.567Z,7.60
2019-03-12T19:27:41.760Z,7.60
2019-03-12T19:30:30.011Z,7.60
2019-03-12T19:33:19.754Z,7.60
2019-03-12T19:36:07.446Z,7.60
2019-03-12T19:38:55.862Z,7.60
2019-03-12T19:41:44.747Z,7.60
2019-03-12T19:44:33.050Z,7.60
2019-03-12T19:47:20.835Z,7.70
2019-03-12T19:50:14.713Z,7.70
2019-03-12T19:53:02.728Z,7.70
2019-03-12T19:55:53.287Z,7.70
2019-03-12T19:58:41.773Z,7.70
2019-03-12T20:01:30.748Z,7.60
2019-03-12T20:04:19.418Z,7.60
2019-03-12T20:07:08.266Z,7.60
2019-03-12T20:09:59.590Z,7.60
2019-03-12T20:12:50.779Z,7.60
2019-03-12T20:16:13.746Z,7.60
2019-03-12T20:19:07.935Z,7.60
2019-03-12T20:22:10.930Z,7.60
2019-03-12T20:25:20.684Z,7.60
2019-03-12T20:28:28.887Z,7.60
2019-03-12T20:31:31.294Z,7.70
2019-03-12T20:34:57.805Z,7.70
2019-03-12T20:38:04.130Z,7.70
2019-03-12T20:41:09.650Z,7.70
2019-03-12T20:44:28.464Z,7.70
2019-03-12T20:47:22.195Z,7.80
2019-03-12T20:50:19.361Z,7.80
2019-03-12T20:53:29.507Z,7.80
2019-03-12T20:56:53.055Z,7.80
2019-03-12T21:00:10.368Z,7.70
2019-03-12T21:03:10.773Z,7.70
2019-03-12T21:06:18.913Z,7.70
2019-03-12T21:09:33.082Z,7.70
2019-03-12T21:12:50.611Z,7.80
2019-03-12T21:16:04.652Z,7.70
2019-03-12T21:19:29.885Z,7.80
2019-03-12T21:22:47.202Z,7.70
2019-03-12T21:25:44.163Z,7.60
2019-03-12T21:28:51.781Z,7.50
2019-03-12T21:31:40.223Z,7.50
2019-03-12T21:34:28.491Z,7.50
2019-03-12T21:37:16.884Z,7.50
2019-03-12T21:40:08.419Z,7.60
2019-03-12T21:42:56.782Z,7.60
2019-03-12T21:45:45.475Z,7.60
2019-03-12T21:48:33.617Z,7.70
2019-03-12T21:51:21.809Z,7.70
2019-03-12T21:54:09.867Z,7.80
2019-03-12T21:56:58.503Z,7.80
2019-03-12T21:59:46.695Z,7.80
2019-03-12T22:02:35.439Z,7.80
2019-03-12T22:05:23.726Z,7.80
2019-03-12T22:08:12.122Z,7.80
2019-03-12T22:11:00.447Z,7.70
2019-03-12T22:13:48.946Z,7.70
2019-03-12T22:16:37.954Z,7.70
2019-03-12T22:19:26.049Z,7.60
2019-03-12T22:22:18.448Z,7.50
2019-03-12T22:25:09.204Z,7.40
2019-03-12T22:27:57.798Z,7.40
2019-03-12T22:30:46.245Z,7.40
2019-03-12T22:33:34.905Z,7.40
2019-03-12T22:36:23.472Z,7.40
2019-03-12T22:39:11.584Z,7.30
2019-03-12T22:42:00.154Z,7.30
2019-03-12T22:44:48.109Z,7.30
2019-03-12T22:47:36.758Z,7.40
2019-03-12T22:50:24.667Z,7.40
2019-03-12T22:53:12.623Z,7.40
2019-03-12T22:56:00.766Z,7.40
2019-03-12T22:58:49.094Z,7.40
2019-03-12T23:01:37.661Z,7.30
2019-03-12T23:04:26.324Z,7.20
2019-03-12T23:07:15.443Z,7.20
2019-03-12T23:10:12.499Z,7.20
2019-03-12T23:13:01.833Z,7.10
2019-03-12T23:15:50.761Z,7.10
2019-03-12T23:18:40.104Z,7.10
2019-03-12T23:21:28.976Z,7.10
2019-03-12T23:24:18.778Z,7.10
2019-03-12T23:27:07.648Z,7.10
2019-03-12T23:29:56.188Z,7.20
2019-03-12T23:32:45.326Z,7.30
2019-03-12T23:35:34.317Z,7.30
2019-03-12T23:38:23.489Z,7.30
2019-03-12T23:41:13.159Z,7.40
2019-03-12T23:44:02.098Z,7.40
2019-03-12T23:46:51.598Z,7.40
2019-03-12T23:49:40.238Z,7.40
2019-03-12T23:52:29.521Z,7.40
2019-03-12T23:55:19.782Z,7.40
2019-03-12T23:58:08.580Z,7.40
